Time;durP1;ratioP1;P1;durP2;ratioP2;P2;SDS_P1;SDS_P2;PMS_P1;PMS_P2;Temp;Humidity;BMP_temperature;BMP_pressure;BME280_temperature;BME280_humidity;BME280_pressure;Samples;Min_cycle;Max_cycle;Signal;HPM_P1;HPM_P2
2022/12/03 00:01:15;;;;;;;33.40;14.13;;;;;;;8.92;45.11;102530.25;5114322;27;20049;-67
2022/12/03 00:03:41;;;;;;;37.27;15.87;;;;;;;9.63;44.53;102527.50;5114489;27;20023;-67
2022/12/03 00:06:06;;;;;;;36.03;15.43;;;;;;;9.44;44.41;102525.34;5112820;27;20120;-67
2022/12/03 00:08:32;;;;;;;33.57;13.97;;;;;;;10.61;42.92;102521.53;5112608;27;20041;-67
2022/12/03 00:10:57;;;;;;;39.93;15.00;;;;;;;10.02;42.95;102523.03;5131022;27;20023;-67
2022/12/03 00:13:22;;;;;;;38.97;15.67;;;;;;;10.57;42.59;102522.31;5131926;27;20015;-67
2022/12/03 00:15:48;;;;;;;38.63;14.13;;;;;;;10.24;42.92;102519.09;5132586;27;20364;-67
2022/12/03 00:18:13;;;;;;;40.17;16.00;;;;;;;10.43;42.14;102522.97;5112111;27;20035;-67
2022/12/03 00:20:38;;;;;;;38.43;15.33;;;;;;;10.05;43.74;102524.84;5112598;27;20118;-67
2022/12/03 00:23:04;;;;;;;37.57;15.53;;;;;;;9.94;42.95;102522.00;5130843;27;20023;-67
2022/12/03 00:25:29;;;;;;;34.13;14.43;;;;;;;9.06;44.84;102517.53;5114220;27;20427;-67
2022/12/03 00:27:54;;;;;;;40.73;16.03;;;;;;;10.29;43.24;102520.06;5112103;27;20188;-67
2022/12/03 00:30:20;;;;;;;40.57;17.03;;;;;;;10.40;42.85;102517.69;5112445;27;20109;-67
2022/12/03 00:32:45;;;;;;;37.10;15.53;;;;;;;10.74;42.41;102525.22;5113167;27;20431;-67
2022/12/03 00:35:11;;;;;;;38.60;16.27;;;;;;;10.66;41.97;102515.50;5111590;27;20604;-67
2022/12/03 00:37:36;;;;;;;38.97;15.80;;;;;;;9.79;44.29;102518.22;5130479;27;20335;-67
2022/12/03 00:40:05;;;;;;;38.10;16.13;;;;;;;10.41;42.31;102523.78;5112295;27;20027;-67
2022/12/03 00:42:31;;;;;;;41.20;17.67;;;;;;;10.09;43.13;102518.81;5113611;27;20015;-67
2022/12/03 00:44:56;;;;;;;37.57;16.83;;;;;;;10.60;42.50;102520.63;5112985;27;20404;-67
2022/12/03 00:47:21;;;;;;;38.30;16.47;;;;;;;11.20;40.90;102508.47;5111258;27;20026;-67
2022/12/03 00:49:47;;;;;;;38.80;17.03;;;;;;;10.95;41.18;102515.09;5130155;27;20549;-67
2022/12/03 00:52:12;;;;;;;39.13;16.03;;;;;;;11.13;41.34;102509.25;5111409;27;20019;-67
2022/12/03 00:54:37;;;;;;;38.37;16.93;;;;;;;11.10;41.65;102506.59;5131522;27;20099;-67
2022/12/03 00:57:03;;;;;;;37.60;16.27;;;;;;;10.39;42.64;102509.81;5113584;28;20031;-67
2022/12/03 00:59:28;;;;;;;35.43;15.37;;;;;;;9.92;43.27;102508.03;5129366;27;20134;-67
2022/12/03 01:01:54;;;;;;;38.03;16.83;;;;;;;9.95;43.98;102502.88;5131146;27;20462;-67
2022/12/03 01:04:19;;;;;;;38.20;16.93;;;;;;;10.81;42.51;102503.50;5110564;27;20145;-67
2022/12/03 01:06:44;;;;;;;40.00;16.73;;;;;;;10.64;43.05;102500.66;5110656;28;20122;-67
2022/12/03 01:09:10;;;;;;;35.03;14.73;;;;;;;9.81;44.35;102497.41;5112738;27;20071;-67
2022/12/03 01:11:38;;;;;;;38.93;16.07;;;;;;;10.25;44.01;102497.34;5113583;28;20572;-67
2022/12/03 01:14:09;;;;;;;39.60;16.37;;;;;;;9.75;45.01;102497.25;5130687;27;20051;-67
2022/12/03 01:16:35;;;;;;;35.50;15.80;;;;;;;9.02;45.96;102490.50;5112280;28;20069;-67
2022/12/03 01:19:00;;;;;;;39.30;16.63;;;;;;;9.52;45.11;102489.84;5110492;28;20464;-67
2022/12/03 01:21:25;;;;;;;37.67;15.63;;;;;;;9.73;45.28;102491.16;5112669;28;20031;-67
2022/12/03 01:23:51;;;;;;;38.53;16.10;;;;;;;9.62;45.19;102489.19;5112440;28;20027;-67
2022/12/03 01:26:16;;;;;;;38.13;16.97;;;;;;;9.94;45.74;102490.66;5130756;28;20109;-67
2022/12/03 01:28:42;;;;;;;34.43;14.73;;;;;;;8.93;46.70;102491.19;5111813;28;20023;-67
2022/12/03 01:33:51;;;;;;;39.23;16.90;;;;;;;9.16;46.87;102485.59;5132013;27;20095;-67
2022/12/03 01:36:17;;;;;;;39.30;16.27;;;;;;;10.38;43.61;102481.91;5114224;27;20035;-67
2022/12/03 01:38:42;;;;;;;40.23;15.80;;;;;;;10.79;43.55;102489.56;5116508;27;20591;-67
2022/12/03 01:41:07;;;;;;;37.37;16.67;;;;;;;9.67;45.70;102489.25;5117145;27;20092;-67
2022/12/03 01:43:33;;;;;;;44.23;17.30;;;;;;;9.87;44.89;102479.22;5116278;27;20453;-67
2022/12/03 01:45:58;;;;;;;35.20;15.33;;;;;;;10.57;43.31;102483.09;5134899;27;20031;-67
2022/12/03 01:48:24;;;;;;;42.27;16.20;;;;;;;10.84;43.30;102487.91;5133338;27;20027;-67
2022/12/03 01:50:49;;;;;;;38.80;16.87;;;;;;;11.11;43.26;102471.69;5116388;27;20027;-67
2022/12/03 01:53:17;;;;;;;38.20;16.07;;;;;;;10.17;44.28;102478.03;5117151;27;20027;-67
2022/12/03 01:55:43;;;;;;;39.60;16.03;;;;;;;10.17;44.18;102478.91;5134213;27;20469;-67
2022/12/03 01:58:12;;;;;;;33.17;14.40;;;;;;;8.76;46.71;102487.28;5114022;27;20065;-67
2022/12/03 02:00:39;;;;;;;36.27;15.63;;;;;;;10.12;44.79;102479.69;5114372;27;20051;-66
2022/12/03 02:03:15;;;;;;;40.47;16.07;;;;;;;9.37;46.77;102486.91;5115904;27;20084;-67
2022/12/03 02:05:41;;;;;;;38.87;16.67;;;;;;;10.32;44.32;102488.75;5130854;27;20057;-67
2022/12/03 02:08:27;;;;;;;40.57;15.83;;;;;;;10.50;44.88;102489.97;5115237;27;20031;-67
2022/12/03 02:10:52;;;;;;;40.77;15.93;;;;;;;9.68;45.65;102477.97;5116797;27;20344;-67
2022/12/03 02:13:18;;;;;;;41.93;16.23;;;;;;;9.77;46.37;102482.53;5134295;27;20088;-67
2022/12/03 02:15:44;;;;;;;40.57;16.30;;;;;;;9.79;45.54;102480.81;5116465;27;20050;-67
2022/12/03 02:18:10;;;;;;;36.70;15.83;;;;;;;9.73;46.29;102481.56;5115620;27;20035;-67
2022/12/03 02:20:52;;;;;;;44.17;16.93;;;;;;;10.78;43.91;102478.19;5113690;27;20547;-67
2022/12/03 02:23:37;;;;;;;36.37;15.47;;;;;;;8.62;47.66;102481.75;5115318;27;20563;-67
2022/12/03 02:26:03;;;;;;;37.30;15.27;;;;;;;9.54;45.94;102475.09;5115925;27;20038;-67
2022/12/03 02:28:29;;;;;;;41.73;16.17;;;;;;;9.44;46.65;102470.53;5113376;27;20035;-67
2022/12/03 02:30:54;;;;;;;41.83;16.50;;;;;;;9.86;45.82;102482.69;5134692;27;20019;-67
2022/12/03 02:33:20;;;;;;;38.60;16.73;;;;;;;9.42;46.16;102480.06;5113541;27;20045;-67
2022/12/03 02:35:46;;;;;;;41.70;16.07;;;;;;;10.56;44.33;102471.75;5133664;27;20031;-66
2022/12/03 02:38:15;;;;;;;42.13;17.93;;;;;;;10.33;44.94;102473.94;5115274;27;20033;-67
2022/12/03 02:40:42;;;;;;;38.93;16.77;;;;;;;8.68;48.36;102479.25;5113760;27;20035;-67
2022/12/03 02:43:08;;;;;;;45.37;17.33;;;;;;;9.96;45.35;102479.41;5116165;27;20118;-67
2022/12/03 02:45:46;;;;;;;39.60;16.80;;;;;;;10.64;44.82;102470.13;5132667;27;20019;-67
2022/12/03 02:48:16;;;;;;;46.23;16.70;;;;;;;10.65;43.81;102471.03;5114400;27;20065;-67
2022/12/03 02:50:48;;;;;;;42.17;16.13;;;;;;;8.85;46.98;102463.13;5133615;27;20051;-67
2022/12/03 02:53:19;;;;;;;44.88;17.25;;;;;;;9.68;46.27;102459.69;5133226;27;20027;-67
2022/12/03 02:55:45;;;;;;;43.43;17.37;;;;;;;10.37;44.99;102461.84;5114110;27;20023;-67
2022/12/03 02:58:11;;;;;;;39.00;15.87;;;;;;;9.46;46.29;102461.88;5114537;27;20026;-67
2022/12/03 03:00:37;;;;;;;42.13;17.63;;;;;;;10.34;44.67;102455.72;5113212;27;20050;-68
2022/12/03 03:03:06;;;;;;;40.00;17.37;;;;;;;9.66;45.66;102451.84;5111796;27;20542;-67
2022/12/03 03:05:33;;;;;;;42.03;16.90;;;;;;;9.28;47.26;102456.28;5133478;27;20434;-67
2022/12/03 03:07:59;;;;;;;38.60;15.33;;;;;;;9.80;45.59;102459.94;5114998;27;20026;-67
2022/12/03 03:10:25;;;;;;;42.23;16.50;;;;;;;10.67;44.42;102449.28;5114377;27;20528;-66
2022/12/03 03:12:54;;;;;;;42.00;16.27;;;;;;;10.05;45.43;102451.69;5133972;27;20084;-67
2022/12/03 03:15:20;;;;;;;41.23;16.90;;;;;;;10.35;45.16;102451.38;5114542;27;20030;-67
2022/12/03 03:17:46;;;;;;;46.30;17.67;;;;;;;9.52;45.92;102450.69;5113504;27;20031;-67
2022/12/03 03:20:12;;;;;;;38.00;17.10;;;;;;;10.48;44.27;102455.06;5132436;27;20509;-67
2022/12/03 03:22:40;;;;;;;37.53;15.20;;;;;;;9.41;46.40;102449.56;5113595;27;20347;-67
2022/12/03 03:25:09;;;;;;;44.87;16.63;;;;;;;10.06;45.60;102453.47;5115308;27;20125;-67
2022/12/03 03:27:35;;;;;;;42.03;18.13;;;;;;;9.31;46.97;102441.59;5133699;27;20117;-67
2022/12/03 03:30:01;;;;;;;37.13;15.57;;;;;;;9.24;47.24;102455.31;5114310;27;20011;-67
2022/12/03 03:32:27;;;;;;;40.73;17.40;;;;;;;9.13;47.78;102441.19;5112859;27;20055;-67
2022/12/03 03:34:54;;;;;;;44.37;16.63;;;;;;;9.66;46.36;102443.13;5128556;27;20029;-67
2022/12/03 03:37:20;;;;;;;38.13;16.13;;;;;;;9.48;46.77;102438.44;5111725;27;20031;-67
2022/12/03 03:39:45;;;;;;;39.80;16.97;;;;;;;10.77;44.21;102431.09;5113514;27;20038;-66
2022/12/03 03:42:11;;;;;;;41.97;16.80;;;;;;;9.73;45.66;102438.91;5112988;27;20046;-67
2022/12/03 03:44:37;;;;;;;46.17;18.10;;;;;;;10.59;44.99;102440.44;5112945;27;20026;-67
2022/12/03 03:47:02;;;;;;;41.30;17.20;;;;;;;9.44;46.85;102431.41;5133400;27;20475;-67
2022/12/03 03:49:28;;;;;;;38.67;16.63;;;;;;;10.01;44.92;102433.34;5131554;27;20035;-67
2022/12/03 03:51:54;;;;;;;44.60;16.73;;;;;;;10.48;44.53;102436.75;5129940;27;20073;-67
2022/12/03 03:54:20;;;;;;;41.57;15.43;;;;;;;9.49;46.50;102434.94;5114385;27;20359;-67
2022/12/03 03:56:45;;;;;;;39.97;15.63;;;;;;;10.00;45.63;102428.97;5114567;27;20110;-67
2022/12/03 03:59:12;;;;;;;36.87;15.47;;;;;;;8.99;47.56;102433.91;5111572;27;20498;-67
2022/12/03 04:01:38;;;;;;;40.97;16.57;;;;;;;9.93;45.56;102431.44;5113128;27;20406;-67
2022/12/03 04:04:07;;;;;;;42.07;16.57;;;;;;;9.74;46.38;102430.22;5130655;27;20031;-67
2022/12/03 04:06:32;;;;;;;45.27;16.77;;;;;;;9.51;47.11;102422.81;5130932;27;20019;-67
2022/12/03 04:08:58;;;;;;;38.50;15.93;;;;;;;10.11;44.92;102426.56;5112910;27;20500;-66
2022/12/03 04:14:07;;;;;;;41.13;16.67;;;;;;;11.09;43.70;102409.75;5131432;27;20504;-67
2022/12/03 04:16:32;;;;;;;39.17;16.27;;;;;;;9.91;46.03;102423.56;5132676;27;20109;-67
2022/12/03 04:18:57;;;;;;;39.27;16.67;;;;;;;10.93;44.48;102409.53;5112544;27;20523;-67
2022/12/03 04:24:09;;;;;;;40.20;16.60;;;;;;;10.40;45.29;102407.91;5130183;27;20421;-67
2022/12/03 04:29:20;;;;;;;35.73;13.50;;;;;;;9.91;45.86;102407.91;5132683;27;20061;-67
2022/12/03 04:37:13;;;;;;;37.73;15.87;;;;;;;10.12;45.81;102398.69;5118883;27;20417;-67
2022/12/03 04:39:39;;;;;;;39.30;15.23;;;;;;;10.07;45.32;102397.72;5131635;27;20031;-67
2022/12/03 04:42:05;;;;;;;34.60;13.60;;;;;;;9.83;45.54;102392.09;5111136;27;20034;-67
2022/12/03 04:44:37;;;;;;;41.67;16.10;;;;;;;9.31;47.61;102392.00;5111800;27;20473;-67
2022/12/03 04:47:09;;;;;;;37.22;15.82;;;;;;;9.21;46.89;102392.66;5112303;27;20451;-67
2022/12/03 04:49:37;;;;;;;;;;;;;;;9.74;46.46;102394.56;5112749;27;20038;-67
2022/12/03 04:52:03;;;;;;;30.83;14.13;;;;;;;8.52;47.94;102385.91;5112642;27;19926;-67
2022/12/03 04:54:29;;;;;;;39.83;16.60;;;;;;;10.10;46.13;102387.34;5130425;27;20058;-67
2022/12/03 04:56:54;;;;;;;39.20;15.87;;;;;;;10.62;44.21;102384.66;5130056;27;20482;-67
2022/12/03 04:59:20;;;;;;;41.73;16.97;;;;;;;10.35;44.78;102389.50;5113216;27;20065;-67
2022/12/03 05:01:45;;;;;;;42.63;16.73;;;;;;;9.61;45.97;102393.41;5130036;27;20487;-67
2022/12/03 05:04:13;;;;;;;40.10;17.00;;;;;;;10.17;45.41;102399.63;5111765;27;20035;-67
2022/12/03 05:06:38;;;;;;;40.70;16.53;;;;;;;9.59;46.55;102395.13;5111346;27;20045;-67
2022/12/03 05:09:03;;;;;;;39.20;16.23;;;;;;;10.39;44.87;102390.44;5110787;27;20023;-66
2022/12/03 05:11:29;;;;;;;40.67;17.73;;;;;;;10.07;45.73;102392.47;5113335;28;20027;-67
2022/12/03 05:13:54;;;;;;;38.67;16.10;;;;;;;9.76;46.20;102386.75;5111968;28;20437;-67
2022/12/03 05:16:20;;;;;;;34.77;15.23;;;;;;;9.71;45.75;102388.38;5112797;28;20023;-67
2022/12/03 05:18:45;;;;;;;42.93;17.23;;;;;;;10.50;44.39;102369.69;5111376;28;20064;-67
2022/12/03 05:21:10;;;;;;;40.00;17.27;;;;;;;10.59;44.55;102377.69;5113197;28;20587;-66
2022/12/03 05:23:36;;;;;;;39.90;16.53;;;;;;;10.32;44.65;102376.34;5110621;28;20031;-67
2022/12/03 05:26:01;;;;;;;38.27;16.37;;;;;;;10.32;44.49;102376.34;5112160;28;20035;-67
2022/12/03 05:28:27;;;;;;;46.37;18.90;;;;;;;10.67;44.11;102365.59;5112643;28;20121;-67
2022/12/03 05:30:52;;;;;;;41.47;16.50;;;;;;;10.88;43.89;102369.38;5112933;28;20114;-67
2022/12/03 05:33:17;;;;;;;37.37;17.47;;;;;;;10.85;44.19;102370.19;5112256;28;20055;-67
2022/12/03 05:35:43;;;;;;;44.93;17.37;;;;;;;9.90;44.98;102372.19;5110724;28;20378;-67
2022/12/03 05:38:08;;;;;;;37.60;16.70;;;;;;;10.65;44.53;102372.53;5110785;27;20109;-67
2022/12/03 05:40:33;;;;;;;42.17;16.77;;;;;;;10.82;43.31;102364.91;5112289;28;20118;-67
2022/12/03 05:43:00;;;;;;;39.03;16.77;;;;;;;10.31;44.61;102371.97;5130759;28;20015;-67
2022/12/03 05:45:30;;;;;;;39.47;17.40;;;;;;;10.44;44.73;102366.97;5131779;28;20078;-67
2022/12/03 05:47:56;;;;;;;45.83;17.73;;;;;;;10.19;44.98;102371.78;5110595;28;20084;-67
2022/12/03 05:50:25;;;;;;;43.97;18.20;;;;;;;10.71;44.12;102365.63;5111739;28;20023;-67
2022/12/03 05:52:50;;;;;;;40.50;17.57;;;;;;;10.38;44.69;102356.44;5112134;28;20065;-67
2022/12/03 05:55:16;;;;;;;38.83;16.73;;;;;;;10.48;44.15;102363.56;5129452;27;20027;-67
2022/12/03 05:57:42;;;;;;;39.53;16.53;;;;;;;10.54;44.25;102353.19;5111572;28;20041;-67
2022/12/03 06:00:36;;;;;;;41.53;17.80;;;;;;;10.14;45.33;102352.56;5131253;28;20499;-67
2022/12/03 06:03:02;;;;;;;45.70;17.17;;;;;;;10.68;43.75;102351.63;5113113;28;20122;-67
2022/12/03 06:05:27;;;;;;;44.33;18.33;;;;;;;10.96;43.24;102352.03;5108390;28;20111;-67
2022/12/03 06:07:53;;;;;;;40.70;17.67;;;;;;;9.96;44.71;102354.00;5112499;28;20035;-67
2022/12/03 06:10:21;;;;;;;42.33;18.10;;;;;;;10.32;43.99;102346.75;5131025;28;20048;-67
2022/12/03 06:12:47;;;;;;;37.73;15.63;;;;;;;10.37;43.69;102354.69;5111340;28;20043;-68
2022/12/03 06:15:13;;;;;;;39.03;16.80;;;;;;;10.56;43.59;102348.84;5110883;27;20035;-67
2022/12/03 06:17:39;;;;;;;42.70;17.53;;;;;;;10.11;44.65;102356.00;5110500;28;20019;-67
2022/12/03 06:20:05;;;;;;;41.77;16.83;;;;;;;10.48;44.05;102342.63;5111130;27;20027;-67
2022/12/03 06:22:30;;;;;;;43.83;17.77;;;;;;;11.18;42.95;102347.03;5115599;27;20031;-67
2022/12/03 06:24:55;;;;;;;41.17;16.40;;;;;;;11.12;42.73;102346.97;5134172;27;20367;-67
2022/12/03 06:27:21;;;;;;;42.43;18.37;;;;;;;11.38;42.08;102340.28;5113419;27;20023;-67
2022/12/03 06:29:47;;;;;;;39.97;17.50;;;;;;;11.24;42.53;102336.66;5134853;27;20068;-67
2022/12/03 06:32:12;;;;;;;44.03;19.23;;;;;;;11.09;43.37;102337.34;5132907;27;20031;-67
2022/12/03 06:34:37;;;;;;;46.13;18.90;;;;;;;11.50;42.14;102333.44;5115413;27;20047;-67
2022/12/03 06:37:03;;;;;;;43.30;17.40;;;;;;;11.23;42.85;102334.88;5133681;27;20042;-67
2022/12/03 06:39:28;;;;;;;40.30;18.10;;;;;;;11.81;41.47;102333.72;5115276;27;20027;-67
2022/12/03 06:41:54;;;;;;;41.20;17.57;;;;;;;11.19;43.41;102333.09;5116225;27;20027;-67
2022/12/03 06:44:19;;;;;;;41.93;17.93;;;;;;;11.10;43.58;102332.97;5133251;27;20078;-67
2022/12/03 06:46:44;;;;;;;40.90;17.43;;;;;;;11.77;41.89;102326.69;5113821;27;20080;-67
2022/12/03 06:49:10;;;;;;;41.47;17.63;;;;;;;11.49;43.01;102323.81;5116430;27;20027;-67
2022/12/03 06:51:36;;;;;;;41.80;17.77;;;;;;;10.48;44.56;102337.41;5111793;27;20119;-68
2022/12/03 06:54:03;;;;;;;43.13;17.73;;;;;;;11.36;42.77;102336.78;5115021;27;20114;-67
2022/12/03 06:56:29;;;;;;;38.97;17.23;;;;;;;10.77;43.40;102339.53;5113324;27;20042;-67
2022/12/03 06:58:54;;;;;;;49.33;20.00;;;;;;;11.24;43.59;102336.66;5095208;28;20531;-67
2022/12/03 07:01:20;;;;;;;45.63;20.10;;;;;;;11.09;43.16;102319.03;5118468;27;20035;-67
2022/12/03 07:03:46;;;;;;;44.13;18.37;;;;;;;11.18;42.99;102327.00;5114837;27;20027;-67
2022/12/03 07:06:12;;;;;;;42.30;17.67;;;;;;;10.92;43.55;102334.53;5131161;27;20031;-67
2022/12/03 07:08:37;;;;;;;46.87;19.93;;;;;;;11.03;44.16;102338.16;5111261;27;20031;-67
2022/12/03 07:11:03;;;;;;;52.63;21.00;;;;;;;10.51;44.94;102347.94;5113929;27;20473;-67
2022/12/03 07:13:28;;;;;;;48.03;19.00;;;;;;;10.59;44.21;102341.06;5097059;28;20038;-68
2022/12/03 07:15:53;;;;;;;48.60;19.77;;;;;;;10.79;44.39;102341.31;5103753;27;20026;-68
2022/12/03 07:18:19;;;;;;;47.80;19.90;;;;;;;10.78;43.94;102330.84;5112931;27;20492;-67
2022/12/03 07:20:44;;;;;;;45.87;18.83;;;;;;;11.03;44.21;102346.00;5115454;27;20037;-67
2022/12/03 07:23:09;;;;;;;49.00;19.87;;;;;;;10.86;44.44;102337.06;5133198;27;20031;-67
2022/12/03 07:25:35;;;;;;;49.43;20.20;;;;;;;10.40;44.88;102341.66;5115545;27;20031;-67
2022/12/03 07:28:00;;;;;;;50.23;20.10;;;;;;;10.65;44.56;102346.38;5114510;27;20027;-67
2022/12/03 07:30:26;;;;;;;51.63;20.53;;;;;;;10.28;44.98;102358.00;5112934;27;20058;-67
2022/12/03 07:32:52;;;;;;;54.13;22.10;;;;;;;10.75;44.26;102346.50;5113239;27;20049;-68
2022/12/03 07:35:17;;;;;;;47.60;19.63;;;;;;;10.07;45.16;102362.03;5114525;27;20031;-67
2022/12/03 07:37:43;;;;;;;54.70;21.77;;;;;;;10.62;44.73;102354.19;5114784;27;20114;-67
2022/12/03 07:40:09;;;;;;;56.07;21.27;;;;;;;10.32;45.06;102346.75;5110963;27;20019;-68
2022/12/03 07:42:34;;;;;;;50.73;20.67;;;;;;;9.76;45.75;102361.50;5125663;27;20027;-68
2022/12/03 07:44:59;;;;;;;51.23;21.60;;;;;;;10.53;44.54;102352.31;5112201;27;20488;-67
2022/12/03 07:47:25;;;;;;;52.27;21.77;;;;;;;10.79;44.30;102348.31;5111369;27;20030;-68
2022/12/03 07:49:50;;;;;;;54.47;21.23;;;;;;;10.82;43.81;102341.34;5111220;27;20042;-68
2022/12/03 07:52:16;;;;;;;49.37;21.27;;;;;;;11.05;43.22;102346.00;5112144;27;20394;-67
2022/12/03 07:54:41;;;;;;;54.43;22.47;;;;;;;11.03;43.62;102338.16;5113064;27;20035;-67
2022/12/03 07:57:06;;;;;;;54.83;20.43;;;;;;;10.97;43.97;102345.91;5113042;27;20043;-68
2022/12/03 07:59:32;;;;;;;50.17;19.97;;;;;;;10.97;43.45;102343.28;5113344;27;20070;-67
2022/12/03 08:01:57;;;;;;;46.13;20.47;;;;;;;10.08;45.06;102342.00;5111409;27;20452;-67
2022/12/03 08:04:23;;;;;;;50.57;21.07;;;;;;;10.18;45.40;102344.78;5112382;27;20126;-67
2022/12/03 08:06:48;;;;;;;50.67;21.37;;;;;;;9.50;45.96;102348.84;5114258;27;20027;-67
2022/12/03 08:09:14;;;;;;;50.60;20.60;;;;;;;9.88;45.61;102345.16;5114382;27;20033;-67
2022/12/03 08:11:40;;;;;;;46.73;20.80;;;;;;;10.79;43.86;102337.84;5131260;27;20056;-67
2022/12/03 08:14:17;;;;;;;45.77;20.53;;;;;;;11.18;42.92;102329.59;5132212;27;20418;-68
2022/12/03 08:16:44;;;;;;;46.50;20.90;;;;;;;10.24;44.77;102336.16;5114414;27;20124;-67
2022/12/03 08:19:12;;;;;;;49.23;21.73;;;;;;;11.45;42.66;102337.75;5113282;27;20023;-68
2022/12/03 08:21:38;;;;;;;45.23;20.57;;;;;;;10.87;43.17;102341.44;5112866;27;20031;-67
2022/12/03 08:24:13;;;;;;;40.97;18.43;;;;;;;11.13;43.06;102338.28;5114485;27;20042;-67
2022/12/03 08:26:40;;;;;;;45.37;17.30;;;;;;;10.45;43.72;102339.97;5131082;27;20031;-67
2022/12/03 08:29:11;;;;;;;46.57;18.27;;;;;;;10.60;43.74;102332.34;5131107;27;20026;-67
2022/12/03 08:31:37;;;;;;;40.80;17.57;;;;;;;9.99;44.40;102337.50;5112301;27;20027;-68
2022/12/03 08:34:17;;;;;;;45.20;19.53;;;;;;;10.69;43.31;102331.63;5112916;27;20084;-68
2022/12/03 08:36:44;;;;;;;44.57;19.33;;;;;;;10.28;43.91;102334.47;5132579;27;20031;-67
2022/12/03 08:39:27;;;;;;;43.17;19.27;;;;;;;11.41;42.39;102335.94;5113140;27;20023;-67
2022/12/03 08:44:41;;;;;;;48.13;19.07;;;;;;;10.71;42.92;102334.25;5132204;27;20739;-67
2022/12/03 08:47:18;;;;;;;43.50;19.03;;;;;;;10.81;42.95;102336.09;5113188;27;20051;-67
2022/12/03 08:50:27;;;;;;;42.47;18.53;;;;;;;11.66;41.41;102335.34;5132300;27;20474;-67
2022/12/03 08:52:56;;;;;;;46.57;19.73;;;;;;;11.18;42.50;102328.72;5098406;27;20043;-67
2022/12/03 08:55:34;;;;;;;42.77;19.20;;;;;;;10.45;44.19;102325.16;5112474;27;20030;-67
2022/12/03 08:57:59;;;;;;;42.87;18.17;;;;;;;11.41;42.27;102323.72;5113600;27;20543;-68
2022/12/03 09:00:25;;;;;;;43.47;20.20;;;;;;;11.53;41.77;102322.97;5112602;27;20141;-67
2022/12/03 09:02:53;;;;;;;40.80;18.73;;;;;;;10.97;43.24;102322.38;5112552;27;20035;-67
2022/12/03 09:05:34;;;;;;;;;;;;;;;10.43;44.10;102318.19;5092935;27;20512;-68
2022/12/03 09:07:59;;;;;;;45.77;19.23;;;;;;;10.51;43.11;102311.34;5131066;27;19907;-67
2022/12/03 09:10:24;;;;;;;44.00;18.10;;;;;;;11.19;42.22;102312.16;5113409;27;20164;-68
2022/12/03 09:12:50;;;;;;;46.57;20.43;;;;;;;10.30;43.98;102312.75;5112581;27;20038;-68
2022/12/03 09:15:16;;;;;;;43.07;18.93;;;;;;;10.28;44.50;102319.66;5129243;27;20038;-68
2022/12/03 09:17:41;;;;;;;46.47;19.80;;;;;;;10.27;44.54;102320.53;5113388;28;20034;-67
2022/12/03 09:20:07;;;;;;;45.07;19.17;;;;;;;10.93;43.25;102315.34;5111825;28;20054;-67
2022/12/03 09:22:32;;;;;;;48.37;20.43;;;;;;;10.73;43.42;102312.50;5111869;28;20505;-67
2022/12/03 09:24:58;;;;;;;43.77;19.47;;;;;;;10.67;43.76;102321.13;5129842;27;20031;-67
2022/12/03 09:27:23;;;;;;;43.63;19.20;;;;;;;11.54;42.44;102319.50;5111501;28;20074;-67
2022/12/03 09:29:49;;;;;;;44.07;19.03;;;;;;;11.49;42.33;102318.56;5131187;28;20466;-68
2022/12/03 09:32:15;;;;;;;46.70;20.07;;;;;;;11.33;42.29;102318.44;5131674;28;20478;-67
2022/12/03 09:34:41;;;;;;;43.93;18.97;;;;;;;11.25;42.68;102312.22;5109343;28;20027;-67
2022/12/03 09:37:06;;;;;;;45.47;20.10;;;;;;;10.75;44.21;102315.13;5129892;27;20498;-67
2022/12/03 09:39:32;;;;;;;47.60;19.23;;;;;;;11.03;43.24;102317.22;5110354;28;20027;-67
2022/12/03 09:41:57;;;;;;;50.80;19.87;;;;;;;10.73;43.48;102322.94;5107169;28;20047;-68
2022/12/03 09:44:23;;;;;;;45.80;18.93;;;;;;;10.51;44.14;102316.56;5111494;28;20027;-67
2022/12/03 09:46:48;;;;;;;53.10;20.70;;;;;;;10.30;44.49;102320.59;5109638;28;20463;-68
2022/12/03 09:49:17;;;;;;;51.20;19.60;;;;;;;11.15;42.97;102310.34;5110304;28;20055;-68
2022/12/03 09:51:43;;;;;;;54.47;21.73;;;;;;;10.35;44.78;102318.94;5092721;28;20110;-68
2022/12/03 09:54:13;;;;;;;53.87;21.10;;;;;;;9.98;44.82;102315.72;5111923;28;20028;-67
2022/12/03 09:56:38;;;;;;;51.70;20.90;;;;;;;10.40;45.05;102319.00;5098138;27;20125;-67
2022/12/03 09:59:15;;;;;;;51.10;20.67;;;;;;;10.13;44.98;102315.09;5132996;27;20126;-67
2022/12/03 10:01:40;;;;;;;51.37;19.73;;;;;;;10.03;44.67;102318.44;5114890;27;20494;-67
2022/12/03 10:04:06;;;;;;;57.60;21.87;;;;;;;9.00;46.85;102325.28;5116347;27;20030;-68
2022/12/03 10:06:32;;;;;;;54.10;22.17;;;;;;;9.68;46.01;102322.22;5116347;27;20015;-69
2022/12/03 10:08:58;;;;;;;51.70;20.87;;;;;;;9.82;45.01;102334.59;5132373;27;20027;-68
2022/12/03 10:11:25;;;;;;;58.17;21.87;;;;;;;9.98;45.10;102335.75;5115058;27;20109;-67
2022/12/03 10:13:56;;;;;;;56.03;21.33;;;;;;;10.67;44.27;102318.53;5115865;27;20045;-68
2022/12/03 10:16:22;;;;;;;56.60;20.43;;;;;;;10.41;44.30;102314.66;5115958;27;20030;-67
2022/12/03 10:18:50;;;;;;;49.60;20.33;;;;;;;10.12;45.14;102312.44;5112351;27;20019;-68
2022/12/03 10:21:30;;;;;;;48.40;18.83;;;;;;;10.32;44.24;102316.25;5115663;27;20497;-68
2022/12/03 10:24:27;;;;;;;52.60;20.13;;;;;;;10.51;44.31;102311.34;5095937;27;20027;-68
2022/12/03 10:26:56;;;;;;;55.23;21.13;;;;;;;10.32;44.05;102311.03;5100100;27;20606;-67
2022/12/03 10:29:27;;;;;;;58.90;21.97;;;;;;;10.19;44.74;102309.06;5115285;27;20019;-68
2022/12/03 10:31:57;;;;;;;51.00;19.47;;;;;;;10.25;44.31;102298.72;5112917;27;20027;-68
2022/12/03 10:34:31;;;;;;;51.23;19.67;;;;;;;11.44;42.71;102302.81;5114763;27;20106;-67
2022/12/03 10:37:17;;;;;;;51.87;20.13;;;;;;;10.74;43.36;102297.66;5132739;27;20116;-68
2022/12/03 10:40:10;;;;;;;54.70;21.30;;;;;;;10.31;43.80;102298.78;5099073;27;20026;-68
2022/12/03 10:42:38;;;;;;;63.85;22.50;;;;;;;11.18;43.43;102295.59;5133707;27;20394;-68
2022/12/03 10:45:21;;;;;;;56.00;21.63;;;;;;;10.63;43.70;102285.34;5133491;27;20027;-68
2022/12/03 10:48:10;;;;;;;58.78;22.15;;;;;;;10.33;43.87;102276.19;5114949;27;20382;-67
2022/12/03 10:50:37;;;;;;;55.80;21.03;;;;;;;10.94;43.12;102275.25;5134584;27;20023;-68
2022/12/03 10:53:03;;;;;;;59.13;21.73;;;;;;;10.49;43.36;102276.44;5114780;27;20027;-68
2022/12/03 10:55:34;;;;;;;56.20;21.03;;;;;;;10.13;43.94;102277.63;5116326;27;20075;-68
2022/12/03 10:58:00;;;;;;;51.23;20.20;;;;;;;11.08;42.23;102266.69;5109191;28;20336;-68
2022/12/03 11:00:25;;;;;;;54.17;20.77;;;;;;;11.42;41.99;102261.78;5128587;27;20395;-68
2022/12/03 11:02:51;;;;;;;52.80;21.27;;;;;;;11.02;42.42;102260.50;5113559;27;20027;-68
2022/12/03 11:05:20;;;;;;;58.03;21.27;;;;;;;11.40;42.40;102263.50;5115924;27;20042;-68
2022/12/03 11:07:46;;;;;;;48.93;21.47;;;;;;;10.84;43.40;102257.69;5110592;27;20037;-68
2022/12/03 11:10:16;;;;;;;58.33;20.80;;;;;;;10.47;43.36;102252.00;5134132;27;20475;-68
2022/12/03 11:13:20;;;;;;;51.07;21.13;;;;;;;10.88;42.69;102249.03;5115678;27;20466;-68
2022/12/03 11:15:45;;;;;;;54.83;19.77;;;;;;;10.22;43.85;102250.75;5098136;27;20054;-68
2022/12/03 11:18:36;;;;;;;63.77;21.93;;;;;;;11.07;42.30;102249.22;5127107;27;20532;-66
2022/12/03 11:21:05;;;;;;;56.47;20.13;;;;;;;11.32;42.27;102245.09;5106290;27;20562;-67
2022/12/03 11:24:01;;;;;;;55.37;21.27;;;;;;;10.34;44.02;102246.63;5108820;27;20030;-67
2022/12/03 11:26:36;;;;;;;57.00;20.93;;;;;;;9.94;45.15;102240.78;5115103;27;20047;-67
2022/12/03 11:29:01;;;;;;;58.83;22.37;;;;;;;10.12;44.99;102236.69;5129551;27;20080;-68
2022/12/03 11:31:45;;;;;;;61.00;22.40;;;;;;;9.79;45.56;102245.78;5114842;27;20031;-68
2022/12/03 11:34:19;;;;;;;58.77;21.57;;;;;;;10.86;43.32;102235.03;5114627;27;20058;-68